Time;durP1;ratioP1;P1;durP2;ratioP2;P2;SDS_P1;SDS_P2;PMS_P1;PMS_P2;Temp;Humidity;BMP_temperature;BMP_pressure;BME280_temperature;BME280_humidity;BME280_pressure;Samples;Min_cycle;Max_cycle;Signal;HPM_P1;HPM_P2
2023/05/14 00:01:24;;;;;;;17.75;7.18;;;;;;;12.91;76.13;101465.34;5010416;28;20145;-68
2023/05/14 00:03:50;;;;;;;11.63;6.32;;;;;;;12.95;75.91;101474.78;4993579;28;20050;-68
2023/05/14 00:06:17;;;;;;;14.25;6.68;;;;;;;13.01;76.13;101461.53;4992834;28;20050;-68
2023/05/14 00:08:44;;;;;;;12.13;6.82;;;;;;;13.01;77.87;101464.22;4993335;28;20046;-68
2023/05/14 00:11:10;;;;;;;17.00;7.60;;;;;;;12.98;77.08;101461.84;4993464;28;20404;-68
2023/05/14 00:13:37;;;;;;;14.88;6.65;;;;;;;12.98;76.07;101459.16;4993484;28;20132;-73
2023/05/14 00:16:04;;;;;;;17.73;7.13;;;;;;;13.06;75.30;101461.03;4994319;28;20053;-73
2023/05/14 00:18:30;;;;;;;16.20;7.47;;;;;;;13.07;75.27;101449.25;4993997;28;20046;-72
2023/05/14 00:20:57;;;;;;;13.30;6.97;;;;;;;13.02;76.57;101456.97;4992264;28;20125;-71
2023/05/14 00:23:23;;;;;;;14.07;6.78;;;;;;;13.06;77.27;101443.03;4992654;28;20513;-73
2023/05/14 00:25:50;;;;;;;13.40;6.82;;;;;;;12.96;77.32;101453.06;4993451;28;20046;-73
2023/05/14 00:28:16;;;;;;;11.25;7.15;;;;;;;12.87;78.21;101449.47;4990744;28;20418;-72
2023/05/14 00:30:43;;;;;;;13.23;6.68;;;;;;;12.92;77.52;101442.78;4992096;28;20105;-72
2023/05/14 00:33:10;;;;;;;13.82;6.65;;;;;;;12.88;77.54;101445.78;4992650;28;20410;-71
2023/05/14 00:35:36;;;;;;;14.10;7.43;;;;;;;12.90;77.80;101448.28;4993231;28;20396;-74
2023/05/14 00:38:03;;;;;;;10.88;7.20;;;;;;;12.93;78.02;101439.91;4978321;28;20081;-73
2023/05/14 00:40:30;;;;;;;12.98;7.05;;;;;;;12.78;77.87;101433.41;4991919;28;20071;-72
2023/05/14 00:42:56;;;;;;;13.95;7.10;;;;;;;12.94;76.76;101443.44;4993005;28;20046;-74
2023/05/14 00:45:23;;;;;;;18.23;7.45;;;;;;;12.82;76.98;101435.63;4993423;28;20066;-74
2023/05/14 00:47:50;;;;;;;15.43;7.47;;;;;;;12.82;77.49;101432.09;4992834;28;20130;-72
2023/05/14 00:50:17;;;;;;;12.88;7.18;;;;;;;12.74;77.96;101427.50;4992214;28;20058;-72
2023/05/14 00:52:44;;;;;;;15.68;7.55;;;;;;;12.65;77.60;101426.56;4987135;28;20047;-72
2023/05/14 00:55:15;;;;;;;14.18;7.07;;;;;;;12.58;78.31;101430.88;4992150;28;20050;-72
2023/05/14 00:57:42;;;;;;;14.23;7.38;;;;;;;12.57;78.30;101429.19;4992585;28;20046;-71
2023/05/14 01:00:09;;;;;;;11.48;7.75;;;;;;;12.35;78.73;101425.16;4991918;28;20125;-72
2023/05/14 01:02:36;;;;;;;16.08;6.93;;;;;;;12.28;79.51;101425.91;5002742;28;20400;-73
2023/05/14 01:09:12;;;;;;;11.70;7.10;;;;;;;11.98;81.71;101430.66;5011629;28;20065;-73
2023/05/14 01:11:54;;;;;;;15.73;7.38;;;;;;;11.84;82.46;101423.97;4992509;28;20407;-71
2023/05/14 01:14:31;;;;;;;;;;;;;;;11.78;82.30;101424.56;4991441;28;20054;-73
2023/05/14 01:17:01;;;;;;;12.93;6.40;;;;;;;11.79;82.20;101431.63;4991881;28;19930;-74
2023/05/14 01:19:44;;;;;;;13.68;6.55;;;;;;;11.79;82.14;101423.56;4990871;28;20050;-67
2023/05/14 01:22:11;;;;;;;10.10;6.35;;;;;;;11.80;81.17;101422.59;4993381;28;20050;-67
2023/05/14 01:24:38;;;;;;;11.10;6.00;;;;;;;11.61;82.40;101428.88;4993765;28;20049;-68
2023/05/14 01:27:34;;;;;;;10.23;6.15;;;;;;;11.60;82.16;101427.19;4996967;28;20046;-66
2023/05/14 01:30:19;;;;;;;10.90;6.50;;;;;;;11.57;83.26;101432.00;4992771;28;20050;-66
2023/05/14 01:32:49;;;;;;;9.02;5.53;;;;;;;11.62;82.62;101424.34;4992461;28;20042;-67
2023/05/14 01:35:17;;;;;;;10.73;6.07;;;;;;;11.62;82.27;101418.97;4993307;28;20046;-66
2023/05/14 01:37:46;;;;;;;9.43;5.78;;;;;;;11.57;82.45;101415.91;4992644;28;20073;-69
2023/05/14 01:40:12;;;;;;;13.05;6.35;;;;;;;11.65;82.27;101416.81;4993184;28;20052;-68
2023/05/14 01:42:40;;;;;;;11.45;5.10;;;;;;;11.43;83.85;101415.38;4982971;28;20081;-68
2023/05/14 01:45:07;;;;;;;10.85;5.78;;;;;;;11.35;84.61;101415.31;4991507;28;20042;-67
2023/05/14 01:47:34;;;;;;;11.48;5.70;;;;;;;11.38;84.80;101408.78;4992289;28;20046;-68
2023/05/14 01:50:00;;;;;;;13.60;6.05;;;;;;;11.31;85.63;101413.03;4992184;28;20070;-66
2023/05/14 01:52:27;;;;;;;8.52;5.95;;;;;;;11.28;85.41;101408.00;4992851;28;20050;-66
2023/05/14 01:54:53;;;;;;;14.02;5.57;;;;;;;11.23;85.60;101403.88;4992139;28;20046;-70
2023/05/14 01:57:20;;;;;;;12.80;5.97;;;;;;;11.31;85.76;101411.22;4991865;28;20054;-68
2023/05/14 01:59:46;;;;;;;10.90;5.80;;;;;;;11.38;85.06;101406.09;4992107;28;20069;-68
2023/05/14 02:02:13;;;;;;;11.55;5.60;;;;;;;11.49;84.28;101407.75;4980054;28;20059;-72
2023/05/14 02:04:39;;;;;;;9.02;5.93;;;;;;;11.40;84.84;101410.31;4973768;28;20053;-69
2023/05/14 02:07:06;;;;;;;8.77;5.97;;;;;;;11.44;84.39;101406.31;4973291;28;20051;-67
2023/05/14 02:09:32;;;;;;;11.55;6.15;;;;;;;11.44;83.65;101406.31;4972856;28;20495;-68
2023/05/14 02:11:59;;;;;;;7.57;5.70;;;;;;;11.46;83.93;101406.19;4972151;28;20130;-69
2023/05/14 02:14:26;;;;;;;10.18;5.40;;;;;;;11.44;83.48;101403.63;4973384;28;20499;-68
2023/05/14 02:16:52;;;;;;;10.02;5.35;;;;;;;11.49;83.03;101402.38;4972773;28;20054;-68
2023/05/14 02:19:19;;;;;;;13.63;6.38;;;;;;;11.51;82.58;101401.19;4973048;28;20051;-69
2023/05/14 02:21:46;;;;;;;11.45;5.63;;;;;;;11.40;83.56;101404.94;4972567;28;20051;-69
2023/05/14 02:24:13;;;;;;;9.93;6.20;;;;;;;11.40;83.47;101396.88;4974047;28;20051;-68
2023/05/14 02:26:39;;;;;;;11.45;5.55;;;;;;;11.38;83.42;101400.72;4973458;28;20049;-67
2023/05/14 02:29:06;;;;;;;18.70;6.20;;;;;;;11.39;83.50;101397.03;4972673;28;20122;-68
2023/05/14 02:31:33;;;;;;;10.80;6.05;;;;;;;11.41;83.33;101389.66;4972620;28;20055;-66
2023/05/14 02:34:05;;;;;;;15.27;6.20;;;;;;;11.25;84.13;101395.69;4972583;28;20093;-67
2023/05/14 02:36:31;;;;;;;11.55;5.50;;;;;;;11.17;84.16;101393.75;4972092;28;20054;-66
2023/05/14 02:38:59;;;;;;;19.50;6.18;;;;;;;11.19;84.39;101390.91;4972685;28;20134;-68
2023/05/14 02:41:26;;;;;;;10.77;6.38;;;;;;;11.19;84.24;101390.91;4972312;28;20087;-67
2023/05/14 02:43:53;;;;;;;11.73;5.63;;;;;;;11.22;83.40;101391.44;4978475;28;20445;-67
2023/05/14 02:46:20;;;;;;;12.50;5.65;;;;;;;11.26;82.20;101392.00;4972881;28;20130;-68
2023/05/14 02:48:46;;;;;;;11.52;5.53;;;;;;;11.35;81.79;101396.50;4971581;28;20074;-69
2023/05/14 02:51:13;;;;;;;8.60;5.50;;;;;;;11.21;81.23;101399.69;4972729;28;20049;-68
2023/05/14 02:53:39;;;;;;;10.45;6.35;;;;;;;11.11;82.17;101397.03;4971615;28;20122;-67
2023/05/14 02:56:06;;;;;;;11.48;5.60;;;;;;;11.17;82.17;101393.75;4971365;28;20166;-66
2023/05/14 02:58:33;;;;;;;9.77;5.07;;;;;;;11.16;81.65;101400.09;4971816;28;20065;-67
2023/05/14 03:00:59;;;;;;;9.60;5.35;;;;;;;11.16;81.70;101396.56;4972177;28;20047;-68
2023/05/14 03:03:28;;;;;;;9.63;5.18;;;;;;;11.21;81.17;101400.50;4981125;28;20054;-68
2023/05/14 03:05:56;;;;;;;10.32;5.10;;;;;;;11.23;81.09;101401.19;5004755;28;20108;-67
2023/05/14 03:08:22;;;;;;;15.50;5.47;;;;;;;11.12;80.45;101403.22;4991835;28;20050;-68
2023/05/14 03:10:48;;;;;;;9.52;5.50;;;;;;;11.09;80.62;101403.53;4992389;28;20050;-68
2023/05/14 03:13:16;;;;;;;10.30;4.75;;;;;;;11.25;79.00;101398.38;4991849;28;20403;-69
2023/05/14 03:15:43;;;;;;;11.95;6.03;;;;;;;11.19;78.82;101398.97;4992475;28;20491;-67
2023/05/14 03:18:10;;;;;;;13.63;5.72;;;;;;;11.10;79.48;101402.53;5011450;28;20045;-66
2023/05/14 03:20:36;;;;;;;14.05;6.38;;;;;;;11.16;79.50;101401.94;5010922;28;20513;-66
2023/05/14 03:23:03;;;;;;;11.30;5.65;;;;;;;11.13;78.85;101404.91;5010071;28;20049;-68
2023/05/14 03:25:29;;;;;;;17.42;6.07;;;;;;;11.25;78.40;101397.53;5000357;28;20105;-66
2023/05/14 03:27:56;;;;;;;9.07;4.75;;;;;;;11.21;78.03;101394.31;5010664;28;20053;-66
2023/05/14 03:30:22;;;;;;;12.18;5.20;;;;;;;11.32;77.83;101395.94;5010240;28;20128;-66
2023/05/14 03:32:49;;;;;;;13.68;6.47;;;;;;;11.22;77.73;101404.03;5009619;28;20477;-66
2023/05/14 03:35:16;;;;;;;12.75;5.53;;;;;;;11.29;77.12;101402.44;5009986;28;20049;-66
2023/05/14 03:37:43;;;;;;;10.65;5.38;;;;;;;11.27;77.69;101401.75;5010111;28;20501;-72
2023/05/14 03:40:10;;;;;;;11.18;5.55;;;;;;;11.19;76.98;101394.44;5008651;28;20049;-74
2023/05/14 03:42:36;;;;;;;8.82;5.78;;;;;;;11.28;76.22;101394.56;5010193;28;20045;-74
2023/05/14 03:45:03;;;;;;;10.30;5.32;;;;;;;11.12;75.75;101392.50;5009689;28;20050;-73
2023/05/14 03:47:29;;;;;;;14.15;5.88;;;;;;;11.11;76.41;101390.81;5010184;28;20046;-72
2023/05/14 03:49:57;;;;;;;21.35;7.20;;;;;;;11.12;75.61;101389.81;5009586;28;20112;-75
2023/05/14 03:52:23;;;;;;;10.98;5.80;;;;;;;11.19;75.56;101390.91;5006753;28;20065;-74
2023/05/14 03:54:50;;;;;;;13.05;6.07;;;;;;;11.07;76.02;101392.09;5010000;28;20046;-72
2023/05/14 03:57:16;;;;;;;9.60;5.68;;;;;;;11.06;76.32;101387.69;5009238;28;20046;-73
2023/05/14 03:59:43;;;;;;;13.68;5.68;;;;;;;11.05;76.35;101377.97;5009661;28;20049;-72
2023/05/14 04:02:09;;;;;;;12.00;5.97;;;;;;;11.09;76.58;101379.34;5003150;28;20053;-72
2023/05/14 04:04:36;;;;;;;10.00;5.45;;;;;;;10.96;77.30;101385.03;4989701;28;20418;-73
2023/05/14 04:07:02;;;;;;;10.80;5.20;;;;;;;11.08;77.47;101377.69;4990009;28;20137;-72
2023/05/14 04:09:29;;;;;;;16.85;5.68;;;;;;;10.89;78.01;101378.56;4990618;28;20138;-71
2023/05/14 04:11:55;;;;;;;11.35;5.95;;;;;;;11.05;77.63;101383.34;4989601;28;20074;-72
2023/05/14 04:14:22;;;;;;;11.38;5.65;;;;;;;10.84;78.15;101383.53;4990229;28;20058;-72
2023/05/14 04:16:48;;;;;;;15.73;5.65;;;;;;;10.71;79.72;101373.13;4990053;28;20125;-73
2023/05/14 04:19:15;;;;;;;11.95;6.00;;;;;;;10.64;80.19;101375.53;4990581;28;20070;-73
2023/05/14 04:21:42;;;;;;;14.90;5.68;;;;;;;10.96;79.18;101377.00;4989562;28;20078;-72
2023/05/14 04:24:08;;;;;;;12.15;4.97;;;;;;;11.06;78.23;101377.81;4989929;28;20476;-73
2023/05/14 04:26:34;;;;;;;12.15;5.82;;;;;;;11.05;78.01;101380.66;4989859;28;20084;-73
2023/05/14 04:29:02;;;;;;;16.30;6.28;;;;;;;11.02;78.25;101375.56;4973032;28;20053;-72
2023/05/14 04:31:29;;;;;;;10.13;5.78;;;;;;;11.13;77.83;101376.22;4989437;28;20459;-71
2023/05/14 04:33:55;;;;;;;14.63;6.15;;;;;;;10.96;78.69;101372.50;4986037;28;20133;-73
2023/05/14 04:36:22;;;;;;;14.40;5.78;;;;;;;10.99;78.56;101379.38;4989992;28;20133;-73
2023/05/14 04:38:48;;;;;;;15.85;6.22;;;;;;;11.06;78.56;101377.81;4989882;28;20053;-71
2023/05/14 04:41:15;;;;;;;10.05;5.70;;;;;;;11.03;77.77;101367.34;4990468;28;20427;-69
2023/05/14 04:43:42;;;;;;;13.35;6.28;;;;;;;10.97;78.74;101370.66;4971010;28;20043;-68
2023/05/14 04:46:08;;;;;;;14.10;5.90;;;;;;;10.99;78.19;101371.34;4969490;28;20042;-69
2023/05/14 04:48:35;;;;;;;12.23;5.78;;;;;;;11.11;77.78;101369.31;4972171;28;20055;-67
2023/05/14 04:51:01;;;;;;;13.50;5.68;;;;;;;11.09;77.55;101368.63;4973898;28;20047;-67
2023/05/14 04:53:30;;;;;;;13.95;5.45;;;;;;;11.06;77.12;101371.59;4973812;28;20102;-69
2023/05/14 04:55:56;;;;;;;13.85;5.68;;;;;;;11.19;76.49;101370.25;4973159;28;20058;-68
2023/05/14 04:58:23;;;;;;;16.05;5.68;;;;;;;11.23;75.63;101376.19;4966375;28;20051;-67
2023/05/14 05:00:49;;;;;;;19.27;6.35;;;;;;;11.43;74.77;101372.41;4973577;28;20061;-67
2023/05/14 05:03:16;;;;;;;10.65;6.10;;;;;;;11.31;75.00;101373.63;4988570;28;20104;-67
2023/05/14 05:05:42;;;;;;;10.15;5.45;;;;;;;11.25;75.09;101366.16;5012398;28;20472;-67
2023/05/14 05:08:10;;;;;;;13.60;6.10;;;;;;;11.40;75.37;101372.69;5012529;28;20042;-67
2023/05/14 05:10:36;;;;;;;13.85;5.70;;;;;;;11.52;74.98;101367.13;5012695;28;20084;-69
2023/05/14 05:13:03;;;;;;;13.30;5.78;;;;;;;11.54;74.60;101357.91;5012421;28;20413;-68
2023/05/14 05:15:29;;;;;;;16.58;5.82;;;;;;;11.63;73.45;101365.06;5012964;28;20054;-68
2023/05/14 05:17:56;;;;;;;12.23;5.65;;;;;;;11.65;72.17;101360.38;5011488;28;20045;-68
2023/05/14 05:20:23;;;;;;;12.45;5.80;;;;;;;11.69;72.00;101360.97;5011324;28;20119;-69
2023/05/14 05:22:50;;;;;;;13.07;5.97;;;;;;;11.71;71.33;101360.81;5011609;28;20057;-68
2023/05/14 05:25:17;;;;;;;17.77;6.28;;;;;;;11.60;70.30;101356.47;5011254;28;20050;-70
2023/05/14 05:27:43;;;;;;;17.52;5.88;;;;;;;11.57;70.66;101359.47;5012661;28;20057;-67
2023/05/14 05:30:10;;;;;;;19.02;5.90;;;;;;;11.80;70.28;101355.38;5011674;28;20049;-67
2023/05/14 05:32:37;;;;;;;12.82;6.00;;;;;;;11.89;70.24;101367.03;5011553;28;20056;-68
2023/05/14 05:35:03;;;;;;;10.98;5.80;;;;;;;11.81;69.59;101359.75;5010471;28;20046;-68
2023/05/14 05:37:30;;;;;;;16.15;5.55;;;;;;;11.83;69.40;101352.38;5007684;28;20513;-68
2023/05/14 05:39:57;;;;;;;13.85;5.85;;;;;;;11.73;69.67;101356.16;5011428;28;20045;-67
2023/05/14 05:42:23;;;;;;;11.85;5.63;;;;;;;11.80;70.08;101360.75;5011068;28;20054;-68
2023/05/14 05:44:50;;;;;;;13.05;6.03;;;;;;;11.86;69.36;101357.47;4996441;28;20053;-68
2023/05/14 05:47:16;;;;;;;13.75;6.22;;;;;;;11.68;70.09;101352.03;4990796;28;20070;-69
2023/05/14 05:49:43;;;;;;;12.32;6.20;;;;;;;11.94;69.30;101354.00;4990603;28;20069;-69
2023/05/14 05:52:09;;;;;;;10.57;6.22;;;;;;;12.01;68.74;101348.84;4990815;28;20038;-69
2023/05/14 05:54:38;;;;;;;16.00;5.90;;;;;;;12.33;67.62;101354.50;4991733;28;20105;-69
2023/05/14 05:57:05;;;;;;;20.95;6.15;;;;;;;12.16;67.63;101349.97;4990319;28;20053;-68
2023/05/14 05:59:32;;;;;;;14.15;5.40;;;;;;;12.30;67.87;101348.56;4991591;28;20081;-69
2023/05/14 06:01:58;;;;;;;11.40;5.80;;;;;;;12.41;67.32;101357.22;4987698;28;20051;-69
2023/05/14 06:04:25;;;;;;;14.48;5.93;;;;;;;12.50;67.00;101350.06;4974234;28;20566;-64
2023/05/14 06:06:51;;;;;;;15.57;6.28;;;;;;;12.56;66.78;101348.63;4976347;28;20106;-64
2023/05/14 06:09:18;;;;;;;11.95;5.85;;;;;;;12.64;65.62;101346.81;4975437;28;20054;-64
2023/05/14 06:11:44;;;;;;;10.27;5.43;;;;;;;12.69;65.52;101340.94;4976369;28;20109;-64
2023/05/14 06:14:12;;;;;;;18.08;5.85;;;;;;;12.66;64.57;101349.34;4975720;28;20424;-64
2023/05/14 06:16:38;;;;;;;9.77;5.40;;;;;;;12.69;64.42;101351.69;4975718;28;20047;-64
2023/05/14 06:19:05;;;;;;;10.13;5.20;;;;;;;12.91;64.44;101344.97;4974709;28;20069;-71
2023/05/14 06:21:32;;;;;;;15.27;5.57;;;;;;;12.78;64.17;101344.56;4973331;28;20133;-70
2023/05/14 06:23:58;;;;;;;20.15;5.40;;;;;;;13.01;63.71;101342.19;4973989;28;20496;-69
2023/05/14 06:26:25;;;;;;;11.35;6.07;;;;;;;13.00;64.90;101340.47;4975907;28;20051;-70
2023/05/14 06:28:51;;;;;;;11.52;5.93;;;;;;;13.24;63.81;101343.25;4974141;28;20054;-70
2023/05/14 06:31:18;;;;;;;12.30;5.15;;;;;;;13.15;63.71;101338.88;4973885;28;20519;-70
2023/05/14 06:33:44;;;;;;;10.60;5.63;;;;;;;13.28;63.14;101341.09;4974255;28;20131;-70
2023/05/14 06:36:11;;;;;;;13.50;6.15;;;;;;;13.27;62.76;101342.94;4974157;28;20058;-70
2023/05/14 06:38:37;;;;;;;10.52;5.32;;;;;;;13.23;63.24;101346.97;4971707;28;20114;-65
2023/05/14 06:41:04;;;;;;;10.32;5.28;;;;;;;13.29;62.74;101340.94;4974498;28;20042;-62
2023/05/14 06:43:31;;;;;;;17.63;5.32;;;;;;;13.25;62.06;101347.66;4973130;28;20115;-63
2023/05/14 06:45:57;;;;;;;9.43;5.38;;;;;;;13.18;62.08;101343.06;4974209;28;20050;-62
2023/05/14 06:48:26;;;;;;;9.18;5.28;;;;;;;13.32;61.67;101345.16;4970525;28;20093;-62
2023/05/14 06:50:53;;;;;;;13.48;5.60;;;;;;;13.27;61.89;101345.63;4974336;28;20047;-63
2023/05/14 06:53:20;;;;;;;13.25;5.43;;;;;;;13.11;62.80;101342.88;4973149;28;20049;-63
2023/05/14 06:55:47;;;;;;;15.48;4.80;;;;;;;13.53;61.95;101348.25;4974263;28;20043;-64
2023/05/14 06:58:13;;;;;;;10.55;5.15;;;;;;;13.58;61.59;101345.06;4974470;28;20043;-66
2023/05/14 07:00:40;;;;;;;9.40;4.88;;;;;;;13.95;62.13;101349.22;4975077;28;20051;-64
2023/05/14 07:03:06;;;;;;;11.75;5.53;;;;;;;13.81;60.99;101340.75;4991617;28;20419;-63
2023/05/14 07:05:33;;;;;;;9.93;4.90;;;;;;;13.87;61.72;101343.78;5010130;28;20050;-67
2023/05/14 07:08:00;;;;;;;12.98;4.57;;;;;;;14.17;59.05;101337.75;4992860;28;20637;-64
2023/05/14 07:10:27;;;;;;;15.98;5.60;;;;;;;14.50;58.04;101335.03;5008663;28;20046;-66
2023/05/14 07:12:53;;;;;;;13.15;5.05;;;;;;;14.60;57.60;101334.81;4990780;28;20053;-66
2023/05/14 07:15:20;;;;;;;7.80;4.40;;;;;;;14.69;57.58;101333.81;4990483;28;20052;-65
2023/05/14 07:17:46;;;;;;;12.40;4.90;;;;;;;14.84;56.56;101331.25;4989582;28;20450;-65
2023/05/14 07:20:13;;;;;;;10.20;4.32;;;;;;;14.73;56.09;101336.00;4991002;28;20050;-64
2023/05/14 07:22:39;;;;;;;10.27;4.18;;;;;;;14.73;55.26;101325.19;4994791;28;20572;-71
2023/05/14 07:25:06;;;;;;;11.40;4.13;;;;;;;14.97;55.04;101326.16;4992657;28;20181;-71
2023/05/14 07:27:33;;;;;;;10.65;4.50;;;;;;;14.42;55.44;101329.63;4990381;28;20050;-68
2023/05/14 07:29:59;;;;;;;14.32;4.60;;;;;;;14.98;54.84;101320.59;4990562;28;20050;-69
2023/05/14 07:32:26;;;;;;;9.98;4.45;;;;;;;15.06;54.74;101329.69;4989732;28;20402;-71
2023/05/14 07:34:52;;;;;;;9.82;4.30;;;;;;;15.25;54.87;101329.22;4989319;28;20065;-70
2023/05/14 07:37:21;;;;;;;8.43;4.10;;;;;;;15.47;53.94;101323.06;4990717;28;20057;-70
2023/05/14 07:39:49;;;;;;;9.02;3.97;;;;;;;15.48;53.38;101316.63;4990641;28;20050;-70
2023/05/14 07:42:16;;;;;;;13.18;4.57;;;;;;;15.68;52.46;101316.19;4990133;28;20086;-70
2023/05/14 07:45:00;;;;;;;5.93;3.90;;;;;;;15.44;51.37;101311.75;4989935;28;20053;-69
2023/05/14 07:47:26;;;;;;;8.48;3.90;;;;;;;15.66;51.49;101315.53;4990848;28;20513;-71
2023/05/14 07:49:56;;;;;;;8.20;3.92;;;;;;;15.38;51.23;101307.88;4989855;28;20043;-70
2023/05/14 07:52:23;;;;;;;10.48;4.10;;;;;;;15.38;50.49;101307.03;4990344;28;20042;-70
2023/05/14 07:54:50;;;;;;;9.95;3.83;;;;;;;16.12;50.35;101305.50;4988041;28;20050;-65
2023/05/14 07:57:18;;;;;;;8.23;3.67;;;;;;;16.30;49.34;101309.78;4970285;28;20512;-67
2023/05/14 07:59:47;;;;;;;10.45;3.40;;;;;;;16.47;49.01;101302.31;4969996;28;20480;-66
2023/05/14 08:02:14;;;;;;;8.07;3.53;;;;;;;16.67;48.17;101298.91;4970925;28;20514;-66
2023/05/14 08:04:41;;;;;;;10.00;3.40;;;;;;;16.57;47.04;101297.50;4974832;28;20121;-65
2023/05/14 08:07:08;;;;;;;12.93;4.18;;;;;;;16.16;48.05;101293.31;4973709;28;20463;-67
2023/05/14 08:09:35;;;;;;;7.88;3.42;;;;;;;16.39;47.49;101284.28;4970719;28;20054;-65
2023/05/14 08:12:01;;;;;;;9.98;3.28;;;;;;;17.15;46.54;101287.66;4970501;28;20081;-66
2023/05/14 08:14:28;;;;;;;11.60;3.03;;;;;;;17.94;45.55;101287.69;4972136;28;20047;-66
2023/05/14 08:16:55;;;;;;;12.10;3.60;;;;;;;17.96;43.89;101291.06;4990355;28;20053;-65
2023/05/14 08:19:23;;;;;;;13.55;3.88;;;;;;;18.21;43.71;101285.25;4976172;28;20050;-66
2023/05/14 08:21:50;;;;;;;10.13;3.33;;;;;;;18.50;41.88;101282.31;4989847;28;20135;-64
2023/05/14 08:24:17;;;;;;;7.15;3.30;;;;;;;17.82;42.50;101281.97;4993223;28;20104;-65
2023/05/14 08:26:44;;;;;;;8.05;3.33;;;;;;;17.68;41.64;101284.72;4994459;28;20046;-65
2023/05/14 08:29:10;;;;;;;6.93;2.83;;;;;;;17.96;42.31;101282.06;4993146;28;20399;-64
2023/05/14 08:31:40;;;;;;;5.50;3.10;;;;;;;18.21;42.04;101274.38;4992232;28;20066;-66
2023/05/14 08:34:06;;;;;;;6.28;2.80;;;;;;;18.68;41.29;101272.78;4992590;28;20372;-65
2023/05/14 08:36:33;;;;;;;8.82;3.47;;;;;;;19.25;40.57;101266.19;4995030;28;20050;-64
2023/05/14 08:38:59;;;;;;;6.18;3.33;;;;;;;19.83;39.56;101273.84;4995829;28;20414;-63
2023/05/14 08:41:26;;;;;;;5.47;3.17;;;;;;;19.47;39.12;101267.69;4995285;28;20491;-62
2023/05/14 08:44:08;;;;;;;7.93;2.90;;;;;;;19.55;38.57;101265.81;4995565;28;20055;-62
2023/05/14 08:46:37;;;;;;;5.97;3.20;;;;;;;20.11;38.19;101258.16;4995131;28;20048;-64
2023/05/14 08:49:35;;;;;;;7.45;2.60;;;;;;;19.56;38.22;101257.47;4993840;28;20050;-63
2023/05/14 08:52:02;;;;;;;11.30;3.55;;;;;;;18.77;38.18;101256.13;4993339;28;20162;-63
2023/05/14 08:54:31;;;;;;;6.20;2.60;;;;;;;18.80;39.28;101254.88;4994732;28;20117;-62
2023/05/14 08:56:58;;;;;;;9.88;3.00;;;;;;;19.45;39.15;101252.59;4994073;28;20070;-64
2023/05/14 08:59:24;;;;;;;5.50;2.70;;;;;;;19.92;37.79;101251.66;4995092;28;20050;-64
2023/05/14 09:01:53;;;;;;;7.70;3.58;;;;;;;20.06;37.56;101249.75;4980504;28;20052;-64
2023/05/14 09:04:22;;;;;;;8.85;3.50;;;;;;;20.14;36.94;101248.69;5014607;28;20049;-63
2023/05/14 09:06:50;;;;;;;7.35;3.22;;;;;;;19.84;37.50;101235.53;5015271;28;20113;-70
2023/05/14 09:09:17;;;;;;;9.13;3.10;;;;;;;20.30;37.28;101234.66;5012672;28;20358;-72
2023/05/14 09:11:48;;;;;;;5.90;3.17;;;;;;;20.09;36.97;101234.91;5012257;28;20052;-73
2023/05/14 09:14:15;;;;;;;9.18;3.00;;;;;;;20.18;37.45;101233.63;5012893;28;20046;-72
2023/05/14 09:16:46;;;;;;;14.25;3.03;;;;;;;19.62;37.03;101231.28;5012311;28;20061;-73
2023/05/14 09:19:13;;;;;;;5.57;3.17;;;;;;;19.58;36.93;101230.88;5012355;28;20053;-70
2023/05/14 09:21:40;;;;;;;9.70;3.13;;;;;;;20.14;35.61;101226.91;5011966;28;20046;-72
2023/05/14 09:24:07;;;;;;;5.78;2.80;;;;;;;20.13;35.96;101225.25;5012387;28;20042;-70
2023/05/14 09:26:34;;;;;;;6.32;3.22;;;;;;;20.63;36.56;101211.97;5012110;28;20137;-69
2023/05/14 09:29:01;;;;;;;7.20;3.05;;;;;;;20.40;35.83;101210.56;4978388;28;20047;-68
2023/05/14 09:31:31;;;;;;;6.95;2.97;;;;;;;20.31;36.49;101200.91;4973405;28;20043;-71
2023/05/14 09:33:59;;;;;;;5.82;3.13;;;;;;;20.77;36.48;101201.84;4971460;28;20065;-72
2023/05/14 09:36:26;;;;;;;9.80;3.05;;;;;;;20.53;35.49;101204.25;4972950;28;20042;-71
2023/05/14 09:38:55;;;;;;;4.82;2.80;;;;;;;20.92;34.89;101186.88;4971882;28;20051;-71
2023/05/14 09:41:22;;;;;;;8.68;2.75;;;;;;;20.42;34.09;101181.22;4972581;28;20062;-71
2023/05/14 09:43:50;;;;;;;9.20;2.80;;;;;;;20.30;34.81;101185.59;4972127;28;20411;-71
2023/05/14 09:46:16;;;;;;;9.57;2.97;;;;;;;19.42;36.17;101185.84;4955937;28;20426;-70
2023/05/14 09:48:44;;;;;;;10.13;2.72;;;;;;;20.54;35.31;101175.91;4972247;28;20053;-71
2023/05/14 09:51:12;;;;;;;5.45;2.67;;;;;;;19.93;35.13;101176.22;4972322;28;20051;-71
2023/05/14 09:53:40;;;;;;;7.97;2.85;;;;;;;20.03;35.67;101176.66;4972530;28;20046;-71
2023/05/14 09:56:06;;;;;;;9.85;2.67;;;;;;;20.20;34.42;101168.88;4972186;28;20080;-71
2023/05/14 09:58:33;;;;;;;6.68;3.00;;;;;;;19.92;34.83;101169.13;4971971;28;20056;-69
2023/05/14 10:01:00;;;;;;;9.80;2.75;;;;;;;20.40;35.97;101156.06;4937796;28;20106;-71
2023/05/14 10:03:29;;;;;;;6.45;2.58;;;;;;;21.92;33.30;101158.06;5003877;28;20048;-72
2023/05/14 10:06:05;;;;;;;7.13;2.65;;;;;;;21.94;32.31;101153.19;4990043;28;20137;-72
2023/05/14 10:08:40;;;;;;;4.18;2.45;;;;;;;21.36;32.01;101149.69;5006935;28;20045;-70
2023/05/14 10:11:13;;;;;;;6.13;3.13;;;;;;;20.65;33.88;101142.53;5010503;28;20049;-71
2023/05/14 10:13:50;;;;;;;4.68;2.50;;;;;;;19.59;34.86;101152.78;5011293;28;20117;-71
2023/05/14 10:16:30;;;;;;;14.00;3.17;;;;;;;18.81;36.00;101149.72;5010661;28;20041;-69
2023/05/14 10:19:03;;;;;;;8.27;2.90;;;;;;;18.21;36.57;101141.31;4991078;28;20069;-70
2023/05/14 10:21:34;;;;;;;5.50;2.92;;;;;;;17.82;37.34;101142.69;5009248;28;20066;-70
2023/05/14 10:24:03;;;;;;;8.85;3.10;;;;;;;17.63;38.03;101141.50;5009962;28;20066;-70
2023/05/14 10:26:31;;;;;;;11.73;3.53;;;;;;;17.58;38.22;101133.13;5011122;28;20042;-72
2023/05/14 10:28:58;;;;;;;7.97;3.38;;;;;;;17.60;38.48;101136.47;4971015;28;20055;-71
2023/05/14 10:31:55;;;;;;;4.75;2.45;;;;;;;17.14;39.31;101131.44;4971705;28;20050;-72
2023/05/14 10:34:37;;;;;;;11.02;2.92;;;;;;;16.85;39.08;101125.13;4961716;28;20476;-70
2023/05/14 10:37:05;;;;;;;6.50;2.83;;;;;;;16.77;39.29;101133.34;4971188;28;20046;-71
2023/05/14 10:39:45;;;;;;;12.77;3.17;;;;;;;16.71;39.37;101127.84;4970947;28;20046;-67
2023/05/14 10:42:34;;;;;;;13.15;3.08;;;;;;;16.53;39.85;101130.97;4969958;28;20046;-71
2023/05/14 10:45:06;;;;;;;8.20;2.85;;;;;;;16.35;40.16;101132.19;4971084;28;20042;-70
2023/05/14 10:47:35;;;;;;;5.15;2.80;;;;;;;16.31;40.24;101125.47;4966988;28;20043;-72
2023/05/14 10:50:04;;;;;;;7.88;2.83;;;;;;;16.44;40.38;101122.09;4970572;28;20054;-72
2023/05/14 10:52:32;;;;;;;7.55;2.67;;;;;;;16.28;39.99;101122.31;4969535;28;20051;-72
2023/05/14 10:55:01;;;;;;;7.75;3.22;;;;;;;16.34;40.44;101124.25;4969939;28;20050;-72
2023/05/14 10:57:31;;;;;;;7.20;2.85;;;;;;;16.56;40.48;101119.75;4967657;28;20058;-72
2023/05/14 10:59:59;;;;;;;8.80;3.20;;;;;;;16.57;40.77;101119.56;4971547;28;20507;-71
2023/05/14 11:02:32;;;;;;;8.68;3.22;;;;;;;16.60;40.52;101121.91;4985815;28;20045;-72
2023/05/14 11:05:02;;;;;;;4.70;2.92;;;;;;;16.58;40.47;101110.44;4990582;28;20088;-72
2023/05/14 11:07:31;;;;;;;12.50;2.93;;;;;;;16.39;39.83;101110.97;4990958;28;20058;-72
2023/05/14 11:10:06;;;;;;;8.70;3.35;;;;;;;16.64;39.88;101115.09;4990629;28;20053;-71
2023/05/14 11:12:34;;;;;;;7.30;3.75;;;;;;;16.73;39.73;101106.84;4988462;28;20049;-69
2023/05/14 11:15:02;;;;;;;10.35;2.60;;;;;;;16.78;39.54;101105.25;4991130;28;20077;-70
2023/05/14 11:17:30;;;;;;;6.43;2.80;;;;;;;16.80;39.27;101099.63;4990481;28;20046;-72
2023/05/14 11:19:57;;;;;;;9.57;3.03;;;;;;;16.73;39.00;101096.00;4990298;28;20047;-71
2023/05/14 11:22:24;;;;;;;8.95;3.42;;;;;;;16.74;39.42;101103.91;4989006;28;20049;-72
2023/05/14 11:24:51;;;;;;;7.50;3.13;;;;;;;16.79;39.92;101095.25;4989880;28;20047;-72
2023/05/14 11:27:19;;;;;;;5.47;3.00;;;;;;;16.83;39.96;101091.94;4990601;28;20042;-71